Terminal Aerodrome Forecast
Issued by NWS Chicago, IL

Home | Current Version | Previous Version | Text Only | Print | Product List | Glossary On
Versions: 1 2 3 4 5 6 7 8 9 10 11 12 13 14 15 16 17 18 19 20 21 22 23 24 25 26 27 28 29 30 31 32 33 34
000
FTUS43 KLOT 252334
TAFRFD
TAF
KRFD 252334Z 2600/2624 21011G17KT P6SM SCT050
     FM260130 19010KT P6SM SCT250
     FM261100 19010KT 6SM BR VCSH BKN015 BKN150
     FM261500 19012KT 6SM -SHRA SCT015 OVC030
      TEMPO 2617/2620 3SM TSRA OVC020CB=

USA.gov is the U.S. government's official web portal to all federal, state and local government web resources and services.